Time;durP1;ratioP1;P1;durP2;ratioP2;P2;SDS_P1;SDS_P2;PMS_P1;PMS_P2;Temp;Humidity;BMP_temperature;BMP_pressure;BME280_temperature;BME280_humidity;BME280_pressure;Samples;Min_cycle;Max_cycle;Signal;HPM_P1;HPM_P2
2023/07/06 00:01:27;;;;;;;6.03;4.30;;;12.20;99.90;;;;;;5075630;28;20242;-72
2023/07/06 00:03:56;;;;;;;6.27;4.33;;;12.30;99.90;;;;;;5075346;28;20247;-72
2023/07/06 00:06:23;;;;;;;8.70;4.27;;;12.10;99.90;;;;;;5075140;28;20192;-72
2023/07/06 00:08:52;;;;;;;5.13;4.63;;;12.00;99.90;;;;;;5075084;28;20644;-72
2023/07/06 00:11:21;;;;;;;4.73;4.27;;;12.00;99.90;;;;;;5075384;28;20208;-73
2023/07/06 00:13:47;;;;;;;6.83;4.07;;;11.90;99.90;;;;;;5075417;28;20211;-72
2023/07/06 00:16:14;;;;;;;5.43;4.37;;;11.90;99.90;;;;;;5075031;28;20542;-72
2023/07/06 00:18:41;;;;;;;5.37;4.60;;;11.80;99.90;;;;;;5075209;28;20197;-72
2023/07/06 00:21:08;;;;;;;5.53;4.70;;;11.90;99.90;;;;;;5074901;28;20313;-72
2023/07/06 00:23:35;;;;;;;5.33;4.50;;;11.80;99.90;;;;;;5075142;28;20201;-72
2023/07/06 00:26:02;;;;;;;9.13;5.47;;;11.60;99.90;;;;;;5075165;28;20201;-73
2023/07/06 00:28:30;;;;;;;5.73;5.13;;;11.60;99.90;;;;;;5075057;28;20208;-72
2023/07/06 00:31:06;;;;;;;6.33;5.40;;;11.50;99.90;;;;;;5074963;28;20211;-72
2023/07/06 00:33:33;;;;;;;8.13;5.43;;;11.50;99.90;;;;;;5074780;28;20254;-72
2023/07/06 00:36:02;;;;;;;7.73;5.10;;;11.40;99.90;;;;;;5074766;28;20288;-72
2023/07/06 00:38:29;;;;;;;6.77;5.23;;;11.60;99.90;;;;;;5074896;28;20621;-72
2023/07/06 00:40:57;;;;;;;5.40;4.87;;;11.60;99.90;;;;;;5074754;28;20277;-72
2023/07/06 00:43:26;;;;;;;5.83;5.13;;;11.60;99.90;;;;;;5074488;28;20653;-72
2023/07/06 00:45:59;;;;;;;6.47;5.13;;;11.60;99.90;;;;;;5074353;28;20201;-72
2023/07/06 00:48:32;;;;;;;5.93;4.87;;;11.70;99.90;;;;;;5074453;28;20205;-72
2023/07/06 00:51:02;;;;;;;6.70;5.00;;;11.60;99.90;;;;;;5074664;28;20203;-72
2023/07/06 00:53:33;;;;;;;7.13;4.90;;;11.70;99.90;;;;;;5074402;28;20621;-72
2023/07/06 00:56:01;;;;;;;7.10;5.17;;;11.60;99.90;;;;;;5074250;28;20229;-72
2023/07/06 00:58:31;;;;;;;5.97;5.37;;;11.60;99.90;;;;;;5074278;28;20243;-72
2023/07/06 01:01:03;;;;;;;10.40;5.10;;;11.70;99.90;;;;;;5074061;28;20232;-72
2023/07/06 01:03:30;;;;;;;6.93;5.30;;;11.60;99.90;;;;;;5074397;28;20251;-72
2023/07/06 01:06:01;;;;;;;6.53;5.03;;;11.60;99.90;;;;;;5074275;28;20201;-72
2023/07/06 01:08:28;;;;;;;6.73;5.23;;;11.60;99.90;;;;;;5074339;28;20246;-71
2023/07/06 01:10:58;;;;;;;7.60;5.37;;;11.70;99.90;;;;;;5074141;28;20266;-72
2023/07/06 01:13:25;;;;;;;7.83;5.20;;;11.70;99.90;;;;;;5073819;28;20197;-72
2023/07/06 01:15:57;;;;;;;6.43;5.47;;;11.80;99.90;;;;;;5074028;28;20193;-71
2023/07/06 01:18:32;;;;;;;5.30;4.80;;;11.90;99.90;;;;;;5073407;28;20201;-71
2023/07/06 01:21:09;;;;;;;5.73;4.90;;;11.90;99.90;;;;;;5073738;28;20228;-73
2023/07/06 01:24:18;;;;;;;7.17;4.77;;;11.80;99.90;;;;;;5073783;28;20197;-72
2023/07/06 01:27:14;;;;;;;8.73;5.07;;;11.60;99.90;;;;;;5073806;28;20213;-73
2023/07/06 01:30:11;;;;;;;5.53;4.77;;;11.70;99.90;;;;;;5073527;28;20675;-72
2023/07/06 01:32:44;;;;;;;8.00;5.07;;;11.60;99.90;;;;;;5073765;28;20259;-72
2023/07/06 01:35:18;;;;;;;6.00;4.83;;;11.70;99.90;;;;;;5073632;28;20207;-72
2023/07/06 01:37:45;;;;;;;7.47;4.80;;;11.80;99.90;;;;;;5073547;28;20257;-72
2023/07/06 01:40:12;;;;;;;7.40;5.13;;;11.90;99.90;;;;;;5073342;28;20286;-72
2023/07/06 01:42:41;;;;;;;6.70;5.20;;;12.00;99.90;;;;;;5073245;28;20267;-73
2023/07/06 01:45:11;;;;;;;6.43;5.10;;;11.90;99.90;;;;;;5073397;28;20283;-72
2023/07/06 01:47:43;;;;;;;7.63;5.70;;;12.00;99.90;;;;;;5073409;28;20196;-72
2023/07/06 01:50:12;;;;;;;6.30;4.90;;;12.10;99.90;;;;;;5073310;28;20228;-72
2023/07/06 01:52:49;;;;;;;6.80;4.73;;;12.00;99.90;;;;;;5073190;28;20247;-72
2023/07/06 01:55:23;;;;;;;6.57;4.83;;;12.10;99.90;;;;;;5072988;28;20243;-73
2023/07/06 01:57:59;;;;;;;5.97;5.30;;;12.10;99.90;;;;;;5073282;28;20205;-72
2023/07/06 02:00:28;;;;;;;6.73;5.40;;;12.00;99.90;;;;;;5073140;28;20231;-72
2023/07/06 02:02:57;;;;;;;7.90;5.37;;;11.90;99.90;;;;;;5073158;28;20250;-72
2023/07/06 02:05:24;;;;;;;6.07;5.27;;;12.00;99.90;;;;;;5073102;28;20255;-72
2023/07/06 02:07:51;;;;;;;6.27;4.83;;;11.90;99.90;;;;;;5073247;28;20259;-73
2023/07/06 02:10:19;;;;;;;5.90;5.20;;;11.90;99.90;;;;;;5073285;28;20201;-73
2023/07/06 02:12:47;;;;;;;7.03;4.87;;;11.90;99.90;;;;;;5073034;28;20278;-72
2023/07/06 02:15:15;;;;;;;6.83;5.77;;;11.90;99.90;;;;;;5072941;28;20201;-73
2023/07/06 02:17:42;;;;;;;9.73;5.83;;;12.00;99.90;;;;;;5072900;28;20201;-73
2023/07/06 02:20:11;;;;;;;6.77;5.90;;;12.10;99.90;;;;;;5072674;28;20270;-73
2023/07/06 02:22:39;;;;;;;8.47;6.00;;;12.10;99.90;;;;;;5072820;28;20680;-72
2023/07/06 02:25:07;;;;;;;8.17;6.43;;;12.20;99.90;;;;;;5072989;28;20232;-73
2023/07/06 02:27:33;;;;;;;8.10;5.87;;;12.20;99.90;;;;;;5072961;28;20209;-73
2023/07/06 02:30:00;;;;;;;7.03;5.47;;;12.10;99.90;;;;;;5072057;28;20602;-73
2023/07/06 02:32:27;;;;;;;8.70;5.60;;;12.10;99.90;;;;;;5072852;28;20398;-72
2023/07/06 02:34:54;;;;;;;8.67;5.43;;;12.10;99.90;;;;;;5072767;28;20209;-73
2023/07/06 02:37:24;;;;;;;6.83;5.57;;;12.10;99.90;;;;;;5072967;28;20288;-73
2023/07/06 02:39:51;;;;;;;8.97;5.77;;;12.10;99.90;;;;;;5072633;28;20663;-73
2023/07/06 02:42:18;;;;;;;6.20;5.53;;;12.10;99.90;;;;;;5072797;28;20203;-73
2023/07/06 02:44:45;;;;;;;7.67;5.97;;;12.10;99.90;;;;;;5072749;28;20231;-73
2023/07/06 02:47:12;;;;;;;6.23;5.00;;;12.00;99.90;;;;;;5072744;28;20255;-73
2023/07/06 02:49:39;;;;;;;7.00;5.00;;;11.90;99.90;;;;;;5072875;28;20243;-72
2023/07/06 02:52:07;;;;;;;7.53;6.23;;;11.90;99.90;;;;;;5072777;28;20270;-72
2023/07/06 02:54:35;;;;;;;7.87;6.20;;;11.80;99.90;;;;;;5072630;28;20193;-73
2023/07/06 02:57:01;;;;;;;11.07;7.67;;;11.80;99.90;;;;;;5072315;28;20281;-73
2023/07/06 02:59:29;;;;;;;8.87;6.73;;;11.70;99.90;;;;;;5072430;28;20211;-73
2023/07/06 03:01:56;;;;;;;12.13;7.30;;;11.70;99.90;;;;;;5072548;28;20221;-72
2023/07/06 03:04:23;;;;;;;10.70;6.93;;;11.70;99.90;;;;;;5072357;28;20197;-72
2023/07/06 03:06:50;;;;;;;8.40;5.77;;;11.60;99.90;;;;;;5072365;28;20656;-72
2023/07/06 03:09:17;;;;;;;7.00;5.87;;;11.50;99.90;;;;;;5072575;28;20197;-72
2023/07/06 03:11:47;;;;;;;8.40;5.70;;;11.40;99.90;;;;;;5072130;28;20653;-72
2023/07/06 03:14:14;;;;;;;7.27;6.00;;;11.30;99.90;;;;;;5072161;28;20607;-72
2023/07/06 03:16:40;;;;;;;7.60;6.27;;;11.30;99.90;;;;;;5072539;28;20201;-72
2023/07/06 03:19:08;;;;;;;9.03;5.87;;;11.30;99.90;;;;;;5072419;28;20276;-72
2023/07/06 03:21:37;;;;;;;7.63;6.17;;;11.20;99.90;;;;;;5072239;28;20220;-72
2023/07/06 03:24:06;;;;;;;11.70;6.17;;;11.30;99.90;;;;;;5072183;28;20232;-72
2023/07/06 03:26:33;;;;;;;10.40;6.07;;;11.30;99.90;;;;;;5072108;28;20197;-72
2023/07/06 03:29:03;;;;;;;8.33;6.40;;;11.40;99.90;;;;;;5072299;28;20203;-72
2023/07/06 03:31:29;;;;;;;9.13;6.00;;;11.30;99.90;;;;;;5072159;28;20197;-72
2023/07/06 03:33:57;;;;;;;7.87;6.70;;;11.30;99.90;;;;;;5072191;28;20259;-72
2023/07/06 03:36:23;;;;;;;7.10;5.63;;;11.30;99.90;;;;;;5071906;28;20270;-72
2023/07/06 03:38:50;;;;;;;10.23;7.43;;;11.10;99.90;;;;;;5072052;28;20193;-72
2023/07/06 03:41:17;;;;;;;9.43;6.50;;;11.30;99.90;;;;;;5072766;28;20274;-72
2023/07/06 03:43:43;;;;;;;10.10;6.83;;;11.40;99.90;;;;;;5075764;28;20208;-72
2023/07/06 03:46:12;;;;;;;9.03;6.23;;;11.50;99.90;;;;;;5075610;28;20714;-72
2023/07/06 03:48:40;;;;;;;7.20;5.77;;;11.50;99.90;;;;;;5075490;28;20211;-73
2023/07/06 03:51:07;;;;;;;7.43;6.20;;;11.40;99.90;;;;;;5075569;28;20311;-72
2023/07/06 03:53:35;;;;;;;8.27;6.57;;;11.40;99.90;;;;;;5075507;28;20231;-72
2023/07/06 03:56:02;;;;;;;7.03;5.77;;;11.30;99.90;;;;;;5075358;28;20233;-73
2023/07/06 03:58:29;;;;;;;6.87;6.07;;;11.20;99.90;;;;;;5075459;28;20556;-72
2023/07/06 04:00:56;;;;;;;7.27;5.63;;;11.20;99.90;;;;;;5075343;28;20303;-72
2023/07/06 04:03:24;;;;;;;6.97;5.47;;;11.30;99.90;;;;;;5075355;28;20236;-73
2023/07/06 04:05:51;;;;;;;7.87;5.80;;;11.20;99.90;;;;;;5075239;28;20197;-73
2023/07/06 04:08:21;;;;;;;5.80;5.00;;;11.20;99.90;;;;;;5075122;28;20228;-72
2023/07/06 04:10:47;;;;;;;6.83;6.03;;;11.30;99.90;;;;;;5075455;28;20266;-72
2023/07/06 04:13:14;;;;;;;7.87;5.67;;;11.40;99.90;;;;;;5075325;28;20258;-72
2023/07/06 04:15:44;;;;;;;11.10;7.17;;;11.50;99.90;;;;;;5075227;28;20349;-72
2023/07/06 04:18:11;;;;;;;12.07;7.67;;;11.60;99.90;;;;;;5075022;28;20675;-74
2023/07/06 04:20:39;;;;;;;10.73;6.93;;;11.60;99.90;;;;;;5074907;28;20289;-72
2023/07/06 04:23:06;;;;;;;13.17;7.27;;;11.60;99.90;;;;;;5074907;28;20629;-72
2023/07/06 04:25:34;;;;;;;13.43;7.50;;;11.60;99.90;;;;;;5075181;28;20250;-72
2023/07/06 04:28:03;;;;;;;9.77;6.93;;;11.70;99.90;;;;;;5075107;28;20564;-72
2023/07/06 04:30:33;;;;;;;12.67;7.07;;;11.80;99.90;;;;;;5074955;28;20201;-72
2023/07/06 04:33:00;;;;;;;12.33;7.20;;;11.80;99.90;;;;;;5074922;28;20223;-73
2023/07/06 04:35:27;;;;;;;9.43;6.40;;;11.90;99.90;;;;;;5074927;28;20263;-73
2023/07/06 04:37:55;;;;;;;10.97;6.73;;;12.10;99.90;;;;;;5075092;28;20251;-73
2023/07/06 04:40:26;;;;;;;11.37;6.87;;;12.20;99.90;;;;;;5074949;28;20254;-73
2023/07/06 04:42:54;;;;;;;12.27;7.37;;;12.30;99.90;;;;;;5074664;28;20653;-73
2023/07/06 04:45:22;;;;;;;12.67;8.00;;;12.30;99.90;;;;;;5074997;28;20225;-74
2023/07/06 04:47:51;;;;;;;12.20;8.40;;;12.40;99.90;;;;;;5074674;28;20656;-73
2023/07/06 04:50:22;;;;;;;8.77;6.70;;;12.50;99.90;;;;;;5074934;28;20197;-74
2023/07/06 04:52:51;;;;;;;8.73;7.30;;;12.50;99.90;;;;;;5073645;28;20664;-74
2023/07/06 04:55:22;;;;;;;10.10;6.57;;;12.60;99.90;;;;;;5074422;28;20229;-73
2023/07/06 04:57:50;;;;;;;10.73;7.27;;;12.70;99.90;;;;;;5074533;28;20201;-73
2023/07/06 05:00:24;;;;;;;11.03;6.67;;;12.80;99.90;;;;;;5074296;28;20216;-74
2023/07/06 05:02:51;;;;;;;9.53;6.77;;;12.90;99.90;;;;;;5074079;28;20704;-74
2023/07/06 05:05:18;;;;;;;9.17;6.33;;;13.00;99.90;;;;;;5074376;28;20254;-74
2023/07/06 05:07:46;;;;;;;11.20;6.90;;;13.00;99.90;;;;;;5074064;28;20565;-73
2023/07/06 05:10:12;;;;;;;9.00;6.50;;;13.20;99.90;;;;;;5074055;28;20288;-74
2023/07/06 05:12:40;;;;;;;8.67;6.97;;;13.20;99.90;;;;;;5074046;28;20231;-74
2023/07/06 05:15:08;;;;;;;8.63;6.70;;;13.40;99.90;;;;;;5074028;28;20562;-73
2023/07/06 05:17:35;;;;;;;8.30;7.00;;;13.50;99.90;;;;;;5073899;28;20246;-73
2023/07/06 05:20:01;;;;;;;9.97;6.70;;;13.60;99.90;;;;;;5073825;28;20243;-73
2023/07/06 05:22:28;;;;;;;7.83;6.37;;;13.70;99.90;;;;;;5073915;28;20236;-73
2023/07/06 05:24:54;;;;;;;8.30;6.10;;;13.80;99.90;;;;;;5073953;28;20594;-73
2023/07/06 05:27:24;;;;;;;8.20;6.47;;;13.90;99.90;;;;;;5073469;28;20254;-73
2023/07/06 05:29:52;;;;;;;10.30;6.13;;;14.00;99.90;;;;;;5073837;28;20614;-74
2023/07/06 05:32:19;;;;;;;7.73;5.37;;;14.10;99.90;;;;;;5073662;28;20208;-73
2023/07/06 05:34:46;;;;;;;7.17;5.83;;;14.30;99.90;;;;;;5073842;28;20606;-75
2023/07/06 05:37:13;;;;;;;8.57;5.43;;;14.40;99.90;;;;;;5073434;28;20207;-73
2023/07/06 05:39:39;;;;;;;8.53;6.03;;;14.50;99.90;;;;;;5073744;28;20201;-73
2023/07/06 05:42:06;;;;;;;7.77;5.50;;;14.60;99.90;;;;;;5073246;28;20572;-73
2023/07/06 05:44:33;;;;;;;11.87;6.43;;;14.70;99.90;;;;;;5073326;28;20683;-73
2023/07/06 05:47:01;;;;;;;8.13;5.97;;;14.80;99.90;;;;;;5073388;28;20251;-73
2023/07/06 05:49:28;;;;;;;7.47;5.60;;;15.00;99.90;;;;;;5073291;28;20197;-73
2023/07/06 05:51:54;;;;;;;9.03;5.13;;;15.00;99.90;;;;;;5072994;28;20201;-73
2023/07/06 05:54:21;;;;;;;8.27;5.17;;;15.20;99.90;;;;;;5072986;28;20200;-73
2023/07/06 05:56:48;;;;;;;4.80;4.23;;;15.30;99.90;;;;;;5072639;28;20576;-73
2023/07/06 05:59:15;;;;;;;10.87;5.20;;;15.40;99.90;;;;;;5073245;28;20197;-73
2023/07/06 06:01:42;;;;;;;9.20;5.13;;;15.60;99.90;;;;;;5072735;28;20221;-73
2023/07/06 06:04:09;;;;;;;9.50;6.15;;;15.70;99.90;;;;;;5072945;28;20611;-73
2023/07/06 06:06:47;;;;;;;7.60;4.75;;;15.80;99.90;;;;;;5073002;28;20201;-74
2023/07/06 06:09:13;;;;;;;8.48;4.90;;;16.00;99.90;;;;;;5073266;28;20269;-73
2023/07/06 06:11:40;;;;;;;8.25;4.72;;;16.00;99.90;;;;;;5073001;28;20200;-74
2023/07/06 06:14:07;;;;;;;5.75;4.70;;;16.20;99.90;;;;;;5072848;28;20201;-74
2023/07/06 06:16:34;;;;;;;5.20;4.40;;;16.30;99.90;;;;;;5073788;28;20201;-74
2023/07/06 06:19:01;;;;;;;7.03;4.35;;;16.40;99.90;;;;;;5073690;28;20197;-74
2023/07/06 06:21:30;;;;;;;6.18;4.47;;;16.50;99.90;;;;;;5073283;28;20229;-73
2023/07/06 06:23:57;;;;;;;6.97;4.60;;;16.50;99.90;;;;;;5073162;28;20209;-74
2023/07/06 06:26:24;;;;;;;5.28;4.57;;;16.70;99.90;;;;;;5073386;28;20197;-73
2023/07/06 06:28:51;;;;;;;4.40;4.00;;;16.70;99.90;;;;;;5073318;28;20672;-73
2023/07/06 06:31:18;;;;;;;5.75;3.30;;;16.80;99.90;;;;;;5073576;28;20657;-74
2023/07/06 06:33:45;;;;;;;7.00;3.40;;;16.90;99.90;;;;;;5073488;28;20193;-74
2023/07/06 06:36:13;;;;;;;3.58;3.08;;;17.00;99.90;;;;;;5072715;28;20606;-73
2023/07/06 06:38:41;;;;;;;3.72;2.97;;;17.10;99.90;;;;;;5073024;28;20197;-73
2023/07/06 06:41:07;;;;;;;5.78;3.28;;;17.20;99.90;;;;;;5073054;28;20230;-74
2023/07/06 06:43:36;;;;;;;4.68;3.15;;;17.20;99.90;;;;;;5073496;28;20192;-73
2023/07/06 06:46:03;;;;;;;5.78;3.15;;;17.20;99.90;;;;;;5073092;28;20193;-74
2023/07/06 06:48:30;;;;;;;6.53;3.53;;;17.30;99.90;;;;;;5072899;28;20201;-74
2023/07/06 06:50:57;;;;;;;4.18;3.15;;;17.40;99.90;;;;;;5072911;28;20226;-74
2023/07/06 06:53:23;;;;;;;6.35;3.08;;;17.50;99.90;;;;;;5073166;28;20222;-74
2023/07/06 06:55:52;;;;;;;5.50;3.70;;;17.50;99.90;;;;;;5072567;28;20365;-73
2023/07/06 06:58:20;;;;;;;5.45;3.38;;;17.70;99.90;;;;;;5072833;28;20246;-74
2023/07/06 07:00:47;;;;;;;6.18;3.33;;;17.80;99.90;;;;;;5072970;28;20201;-74
2023/07/06 07:03:14;;;;;;;3.28;2.75;;;17.90;99.90;;;;;;5072734;28;20225;-74
2023/07/06 07:05:41;;;;;;;4.20;3.17;;;17.90;99.90;;;;;;5073064;28;20197;-74
2023/07/06 07:08:08;;;;;;;3.58;2.83;;;18.10;99.90;;;;;;5072915;28;20201;-74
2023/07/06 07:10:35;;;;;;;2.80;2.58;;;18.20;99.90;;;;;;5073168;28;20201;-74
2023/07/06 07:13:02;;;;;;;5.15;2.67;;;18.30;99.90;;;;;;5072860;28;20710;-73
2023/07/06 07:15:29;;;;;;;6.00;2.75;;;18.30;99.90;;;;;;5072972;28;20197;-74
2023/07/06 07:17:57;;;;;;;4.82;2.85;;;18.20;99.90;;;;;;5076430;28;20653;-74
2023/07/06 07:20:26;;;;;;;3.50;2.70;;;18.30;99.90;;;;;;5076917;28;20200;-74
2023/07/06 07:22:54;;;;;;;5.03;2.72;;;18.40;99.90;;;;;;5076705;28;20256;-73
2023/07/06 07:25:21;;;;;;;3.70;2.30;;;18.50;99.90;;;;;;5076498;28;20203;-73
2023/07/06 07:27:47;;;;;;;4.57;2.35;;;18.70;99.90;;;;;;5077201;28;20196;-74
2023/07/06 07:30:16;;;;;;;4.07;2.88;;;18.80;99.90;;;;;;5076038;28;20254;-73
2023/07/06 07:32:42;;;;;;;5.22;2.58;;;18.80;99.90;;;;;;5076232;28;20249;-74
2023/07/06 07:35:09;;;;;;;3.58;2.80;;;18.80;99.90;;;;;;5076038;28;20246;-73
2023/07/06 07:37:36;;;;;;;3.88;2.50;;;18.90;99.70;;;;;;5076108;28;20267;-74
2023/07/06 07:40:05;;;;;;;2.90;2.50;;;18.90;99.80;;;;;;5076312;28;20197;-74
2023/07/06 07:42:31;;;;;;;4.57;2.65;;;19.10;99.90;;;;;;5076093;28;20227;-75
2023/07/06 07:44:58;;;;;;;4.32;2.47;;;19.30;99.90;;;;;;5075571;28;20197;-75
2023/07/06 07:47:27;;;;;;;6.70;2.85;;;19.60;98.90;;;;;;5075673;28;20201;-75
2023/07/06 07:49:54;;;;;;;4.05;2.63;;;19.50;95.40;;;;;;5075738;28;20201;-74
2023/07/06 07:52:21;;;;;;;8.10;2.85;;;19.50;96.40;;;;;;5075504;28;20197;-73
2023/07/06 07:54:48;;;;;;;4.47;2.20;;;19.50;94.50;;;;;;5075456;28;20201;-75
2023/07/06 07:57:15;;;;;;;4.55;2.60;;;19.60;94.10;;;;;;5075269;28;20228;-75
2023/07/06 07:59:42;;;;;;;2.80;2.47;;;19.70;94.70;;;;;;5075807;28;20208;-76
2023/07/06 08:02:09;;;;;;;3.08;2.22;;;20.00;94.20;;;;;;5075561;28;20285;-74
2023/07/06 08:04:37;;;;;;;4.40;2.53;;;19.90;93.20;;;;;;5075562;28;20201;-74
2023/07/06 08:07:05;;;;;;;4.40;2.50;;;20.20;93.10;;;;;;5074985;28;20599;-73
2023/07/06 08:09:32;;;;;;;5.10;2.88;;;20.40;93.20;;;;;;5055294;28;20202;-75
2023/07/06 08:11:59;;;;;;;3.33;2.47;;;20.60;92.70;;;;;;5055199;28;20569;-74
2023/07/06 08:14:37;;;;;;;3.70;2.53;;;20.50;90.40;;;;;;5058777;28;20254;-73
2023/07/06 08:17:05;;;;;;;3.40;2.50;;;20.20;87.60;;;;;;5064325;28;20200;-74
2023/07/06 08:19:33;;;;;;;4.10;2.65;;;20.10;90.00;;;;;;5058298;28;20541;-72
2023/07/06 08:22:01;;;;;;;5.22;2.80;;;20.20;89.70;;;;;;5074711;28;20746;-72
2023/07/06 08:24:29;;;;;;;5.63;2.42;;;20.70;90.00;;;;;;5074705;28;20204;-72
2023/07/06 08:26:55;;;;;;;5.25;2.60;;;21.00;88.50;;;;;;5074574;28;20200;-73
2023/07/06 08:29:22;;;;;;;7.97;2.47;;;21.00;86.80;;;;;;5074716;28;20200;-72
2023/07/06 08:31:50;;;;;;;4.53;2.88;;;21.00;86.20;;;;;;5074578;28;20295;-72
2023/07/06 08:34:17;;;;;;;3.55;2.63;;;20.60;86.00;;;;;;5074630;28;20197;-72
2023/07/06 08:36:44;;;;;;;5.10;2.60;;;20.80;86.20;;;;;;5074951;28;20219;-72
2023/07/06 08:39:12;;;;;;;3.47;2.70;;;20.90;85.60;;;;;;5074669;28;20607;-73
2023/07/06 08:41:42;;;;;;;5.20;2.85;;;20.90;86.00;;;;;;5054868;28;20201;-72
2023/07/06 08:44:12;;;;;;;5.85;2.70;;;21.00;86.80;;;;;;5054886;28;20255;-73
2023/07/06 08:46:42;;;;;;;6.78;2.97;;;21.30;85.20;;;;;;5074369;28;20603;-73
2023/07/06 08:49:18;;;;;;;4.78;2.58;;;21.50;84.60;;;;;;5074272;28;20193;-74
2023/07/06 08:51:45;;;;;;;3.85;2.50;;;21.90;84.20;;;;;;5074138;28;20660;-74
2023/07/06 08:54:21;;;;;;;5.30;2.65;;;22.80;84.20;;;;;;5074147;28;20201;-73
2023/07/06 08:56:49;;;;;;;3.63;2.40;;;22.70;78.80;;;;;;5074208;28;20220;-73
2023/07/06 08:59:21;;;;;;;4.30;2.90;;;22.30;77.60;;;;;;5074017;28;20197;-78
2023/07/06 09:01:49;;;;;;;9.90;2.70;;;22.10;78.60;;;;;;5074009;28;20228;-73
2023/07/06 09:04:19;;;;;;;4.00;3.08;;;22.20;78.20;;;;;;5074047;28;20352;-74
2023/07/06 09:06:52;;;;;;;3.63;2.70;;;21.90;78.00;;;;;;5074365;28;20200;-73
2023/07/06 09:09:20;;;;;;;3.53;2.78;;;21.90;77.80;;;;;;5074106;28;20684;-73
2023/07/06 09:11:50;;;;;;;5.57;2.85;;;22.40;78.00;;;;;;5074178;28;20249;-73
2023/07/06 09:14:20;;;;;;;3.10;2.70;;;22.20;76.80;;;;;;5074161;28;20205;-73
2023/07/06 09:16:49;;;;;;;4.72;2.97;;;21.90;75.00;;;;;;5073994;28;20235;-73
2023/07/06 09:19:17;;;;;;;3.85;2.85;;;22.80;74.90;;;;;;5074228;28;20197;-73
2023/07/06 09:21:47;;;;;;;3.17;2.85;;;23.60;73.10;;;;;;5073799;28;20292;-73
2023/07/06 09:24:14;;;;;;;3.22;2.88;;;24.30;69.00;;;;;;5073734;28;20247;-73
2023/07/06 09:26:45;;;;;;;4.28;3.05;;;24.40;66.60;;;;;;5073729;28;20696;-73
2023/07/06 09:29:15;;;;;;;4.03;2.90;;;24.50;64.80;;;;;;5073757;28;20258;-73
2023/07/06 09:31:43;;;;;;;5.38;2.92;;;24.70;64.40;;;;;;5073931;28;20258;-73
2023/07/06 09:34:25;;;;;;;4.90;2.70;;;24.40;61.90;;;;;;5073769;28;20287;-73
2023/07/06 09:36:51;;;;;;;3.47;2.80;;;24.10;61.10;;;;;;5073643;28;20668;-73
2023/07/06 09:39:18;;;;;;;5.43;3.05;;;23.80;63.40;;;;;;5073159;28;20255;-78
2023/07/06 09:41:46;;;;;;;5.70;2.90;;;24.20;60.10;;;;;;5073220;28;20215;-74
2023/07/06 09:44:19;;;;;;;4.38;3.20;;;23.70;60.60;;;;;;5073314;28;20270;-73
2023/07/06 09:46:46;;;;;;;5.43;3.05;;;23.30;61.00;;;;;;5073657;28;20208;-72
2023/07/06 09:49:17;;;;;;;4.95;2.88;;;23.40;59.60;;;;;;5073760;28;20231;-72
2023/07/06 09:51:50;;;;;;;3.05;2.63;;;24.00;59.80;;;;;;5073675;28;20197;-70
2023/07/06 09:54:19;;;;;;;3.35;3.00;;;23.70;59.50;;;;;;5073296;28;20328;-71
2023/07/06 09:56:48;;;;;;;4.28;3.15;;;24.20;59.00;;;;;;5073236;28;20290;-72
2023/07/06 09:59:15;;;;;;;3.90;2.78;;;24.00;58.90;;;;;;5073060;28;20201;-72
2023/07/06 10:01:53;;;;;;;4.65;2.80;;;23.90;59.10;;;;;;5073572;28;20205;-72
2023/07/06 10:04:44;;;;;;;3.70;2.92;;;23.50;58.30;;;;;;5073091;28;20209;-71
2023/07/06 10:07:23;;;;;;;5.47;3.17;;;23.70;58.70;;;;;;5073514;28;20197;-72
2023/07/06 10:09:56;;;;;;;7.20;2.65;;;24.30;57.90;;;;;;5072387;28;20204;-70
2023/07/06 10:12:31;;;;;;;4.93;3.10;;;24.10;57.80;;;;;;5055490;28;20198;-72
2023/07/06 10:15:05;;;;;;;3.45;2.67;;;24.50;56.90;;;;;;5056195;28;20199;-72
2023/07/06 10:17:37;;;;;;;3.60;2.90;;;24.50;56.00;;;;;;5052778;28;20255;-72
2023/07/06 10:20:14;;;;;;;2.90;2.60;;;24.30;53.80;;;;;;5052650;28;20206;-72
2023/07/06 10:22:56;;;;;;;3.22;2.50;;;24.40;53.10;;;;;;5052645;28;20221;-72
2023/07/06 10:25:26;;;;;;;3.78;2.65;;;24.60;53.40;;;;;;5052703;28;20734;-73
2023/07/06 10:28:03;;;;;;;5.22;2.72;;;24.60;54.00;;;;;;5053090;28;20319;-73
2023/07/06 10:30:35;;;;;;;6.78;2.63;;;24.30;54.70;;;;;;5052350;28;20208;-72
2023/07/06 10:33:07;;;;;;;3.72;2.50;;;24.00;54.00;;;;;;5056448;28;20228;-74
2023/07/06 10:35:38;;;;;;;3.78;2.63;;;24.90;54.10;;;;;;5061712;28;20224;-73
2023/07/06 10:38:08;;;;;;;4.40;3.00;;;24.70;51.80;;;;;;5052625;28;20190;-72
2023/07/06 10:40:37;;;;;;;5.13;2.90;;;24.10;53.40;;;;;;5052704;28;20201;-72
2023/07/06 10:43:21;;;;;;;3.75;2.85;;;24.10;53.60;;;;;;5052359;28;20218;-72
2023/07/06 10:45:49;;;;;;;6.00;3.00;;;25.30;52.90;;;;;;5052419;28;20204;-72
2023/07/06 10:48:27;;;;;;;6.10;3.20;;;25.60;50.70;;;;;;5056663;28;20200;-72
2023/07/06 10:51:12;;;;;;;2.92;2.22;;;26.40;48.90;;;;;;5072485;28;20246;-72
2023/07/06 10:53:41;;;;;;;3.00;2.45;;;27.30;47.00;;;;;;5075623;28;20196;-72
2023/07/06 10:56:17;;;;;;;4.03;2.53;;;28.10;44.20;;;;;;5075899;28;20298;-72
2023/07/06 10:58:54;;;;;;;5.95;2.72;;;29.20;42.80;;;;;;5076069;28;20273;-72
2023/07/06 11:01:23;;;;;;;6.78;3.00;;;27.90;41.20;;;;;;5076317;28;20192;-72
2023/07/06 11:03:49;;;;;;;2.85;2.50;;;27.40;43.20;;;;;;5075941;28;20274;-74
2023/07/06 11:06:37;;;;;;;5.78;2.53;;;28.00;41.80;;;;;;5075869;28;20208;-74
2023/07/06 11:09:23;;;;;;;6.13;3.22;;;29.50;39.50;;;;;;5076046;28;20258;-75
2023/07/06 11:12:18;;;;;;;3.63;2.60;;;30.10;37.90;;;;;;5076325;28;20594;-75
2023/07/06 11:14:45;;;;;;;3.88;2.63;;;28.20;37.30;;;;;;5076072;28;20228;-74
2023/07/06 11:17:26;;;;;;;3.78;2.65;;;26.80;38.70;;;;;;5075853;28;20197;-75
2023/07/06 11:19:57;;;;;;;2.97;2.75;;;26.30;39.70;;;;;;5076301;28;20196;-73
2023/07/06 11:22:25;;;;;;;3.55;2.67;;;26.90;39.60;;;;;;5076109;28;20231;-76
2023/07/06 11:24:59;;;;;;;4.55;2.88;;;27.40;37.70;;;;;;5075897;28;20603;-74
2023/07/06 11:27:30;;;;;;;2.97;2.67;;;28.20;37.40;;;;;;5075768;28;20228;-74
2023/07/06 11:30:04;;;;;;;3.80;2.70;;;28.50;36.70;;;;;;5075630;28;20291;-74
2023/07/06 11:32:36;;;;;;;4.45;2.60;;;29.00;36.10;;;;;;5075772;28;20662;-73
2023/07/06 11:35:11;;;;;;;6.13;2.47;;;28.80;35.50;;;;;;5075934;28;20201;-73
2023/07/06 11:37:50;;;;;;;4.53;2.92;;;30.00;34.80;;;;;;5075780;28;20609;-74
2023/07/06 11:40:41;;;;;;;3.35;2.60;;;29.60;33.00;;;;;;5075656;28;20197;-77
2023/07/06 11:43:24;;;;;;;2.60;2.40;;;29.90;34.10;;;;;;5075661;28;20701;-77
2023/07/06 11:45:59;;;;;;;2.45;2.25;;;31.10;28.90;;;;;;5075589;28;20189;-78
2023/07/06 11:48:34;;;;;;;5.18;2.75;;;32.50;27.70;;;;;;5075124;28;20248;-78
2023/07/06 11:51:03;;;;;;;3.97;2.33;;;32.10;25.80;;;;;;5075438;28;20200;-76
2023/07/06 11:53:42;;;;;;;4.30;2.50;;;30.90;26.70;;;;;;5075601;28;20224;-78
2023/07/06 11:56:32;;;;;;;6.72;2.78;;;32.90;28.00;;;;;;5075416;28;20232;-79
2023/07/06 11:59:01;;;;;;;2.92;2.50;;;32.70;27.50;;;;;;5075514;28;20239;-77
2023/07/06 12:04:18;;;;;;;4.30;2.60;;;32.90;26.10;;;;;;5073303;28;20231;-75
2023/07/06 12:06:45;;;;;;;3.28;2.30;;;31.90;25.70;;;;;;5075293;28;20196;-75
2023/07/06 12:09:18;;;;;;;2.85;2.60;;;31.20;25.90;;;;;;5075270;28;20227;-76
2023/07/06 12:11:49;;;;;;;5.30;2.50;;;29.90;26.50;;;;;;5075050;28;20196;-74
2023/07/06 12:14:20;;;;;;;3.38;2.53;;;28.60;27.60;;;;;;5075619;28;20197;-74
2023/07/06 12:16:50;;;;;;;2.60;2.38;;;31.10;26.80;;;;;;5075068;28;20283;-73
2023/07/06 12:19:17;;;;;;;3.95;2.42;;;30.10;25.50;;;;;;5075040;28;20287;-74
2023/07/06 12:21:50;;;;;;;5.55;2.70;;;29.70;25.90;;;;;;5074783;28;20208;-74
2023/07/06 12:24:20;;;;;;;2.58;2.20;;;31.10;25.50;;;;;;5075002;28;20241;-74
2023/07/06 12:26:51;;;;;;;3.50;2.80;;;33.30;23.30;;;;;;5074986;28;20291;-74
2023/07/06 12:29:23;;;;;;;3.38;2.50;;;33.50;22.70;;;;;;5074849;28;20196;-74
2023/07/06 12:31:51;;;;;;;3.00;2.30;;;33.20;22.40;;;;;;5074759;28;20293;-74
2023/07/06 12:34:20;;;;;;;4.97;2.58;;;33.10;22.20;;;;;;5074615;28;20201;-74
2023/07/06 12:36:50;;;;;;;3.35;2.90;;;32.00;22.60;;;;;;5074470;28;20203;-74
2023/07/06 12:39:20;;;;;;;2.72;2.47;;;33.30;22.50;;;;;;5074650;28;20200;-75
2023/07/06 12:41:51;;;;;;;5.93;2.42;;;34.30;21.30;;;;;;5074596;28;20216;-74
2023/07/06 12:44:21;;;;;;;2.70;2.50;;;34.70;21.00;;;;;;5074392;28;20229;-74
2023/07/06 12:46:51;;;;;;;4.00;2.55;;;34.40;20.50;;;;;;5074587;28;20702;-74
2023/07/06 12:49:22;;;;;;;3.33;2.50;;;34.30;19.90;;;;;;5074693;28;20287;-74
2023/07/06 12:51:50;;;;;;;4.05;2.80;;;35.10;20.10;;;;;;5074973;28;20196;-74
2023/07/06 12:54:17;;;;;;;3.70;2.40;;;34.50;20.00;;;;;;5074613;28;20561;-74
2023/07/06 12:56:46;;;;;;;4.35;2.50;;;34.30;20.10;;;;;;5074290;28;20228;-74
2023/07/06 12:59:20;;;;;;;3.03;2.50;;;34.40;19.80;;;;;;5074738;28;20200;-74
2023/07/06 13:01:46;;;;;;;3.15;2.70;;;32.80;20.00;;;;;;5074358;28;20201;-74